New Providence, Pennsylvania
Current Conditions -  °F | °C
As of 2:53 PM on Friday 24 Oct 2014 (Local Time) from KLNS Reporting Station
Clear Clear  
Wind Chill: 65°   Ceiling: Unl
Heat Index: 65°   Visibility: 10mi
Dew Point: 41°   Wind: 15mph
Humidity: 42%   Direction: 320°NW
Pressure: 29.85"   Gusts: 23mph
Location:  39.93°N, 76.2°W
Report Text: KLNS 241853Z 32013G20KT 10SM CLR 18/05 A2985 RMK AO2 SLP106 T01830050
Loading
Personal Weather Stations






























Interactive Weather Map
Tropical Storm Tracking
New forecast layout! Learn more

10-Day Weather Forecast

Advertisements
Track Severe Weather on mobile